sensor_id;sensor_type;location;lat;lon;timestamp;P1;durP1;ratioP1;P2;durP2;ratioP2
71320;SDS011;59118;54.322;18.576;2023-04-06T00:00:08;19.85;;;6.47;;
71320;SDS011;59118;54.322;18.576;2023-04-06T00:02:35;19.67;;;7.00;;
71320;SDS011;59118;54.322;18.576;2023-04-06T00:05:02;21.80;;;7.85;;
71320;SDS011;59118;54.322;18.576;2023-04-06T00:07:29;20.27;;;7.63;;
71320;SDS011;59118;54.322;18.576;2023-04-06T00:09:56;18.67;;;7.05;;
71320;SDS011;59118;54.322;18.576;2023-04-06T00:12:22;21.23;;;6.88;;
71320;SDS011;59118;54.322;18.576;2023-04-06T00:14:49;19.25;;;6.95;;
71320;SDS011;59118;54.322;18.576;2023-04-06T00:17:16;19.77;;;7.35;;
71320;SDS011;59118;54.322;18.576;2023-04-06T00:19:42;21.40;;;7.33;;
71320;SDS011;59118;54.322;18.576;2023-04-06T00:22:09;23.92;;;7.00;;
71320;SDS011;59118;54.322;18.576;2023-04-06T00:24:36;24.83;;;7.63;;
71320;SDS011;59118;54.322;18.576;2023-04-06T00:27:02;20.02;;;6.95;;
71320;SDS011;59118;54.322;18.576;2023-04-06T00:29:29;17.17;;;6.65;;
71320;SDS011;59118;54.322;18.576;2023-04-06T00:31:55;18.73;;;6.70;;
71320;SDS011;59118;54.322;18.576;2023-04-06T00:34:22;21.67;;;7.72;;
71320;SDS011;59118;54.322;18.576;2023-04-06T00:36:49;17.33;;;6.68;;
71320;SDS011;59118;54.322;18.576;2023-04-06T00:39:15;20.92;;;6.60;;
71320;SDS011;59118;54.322;18.576;2023-04-06T00:41:46;20.38;;;6.93;;
71320;SDS011;59118;54.322;18.576;2023-04-06T00:44:18;18.53;;;5.97;;
71320;SDS011;59118;54.322;18.576;2023-04-06T00:46:46;20.20;;;6.32;;
71320;SDS011;59118;54.322;18.576;2023-04-06T00:49:12;19.90;;;7.15;;
71320;SDS011;59118;54.322;18.576;2023-04-06T00:51:39;18.42;;;6.10;;
71320;SDS011;59118;54.322;18.576;2023-04-06T00:54:05;20.27;;;6.90;;
71320;SDS011;59118;54.322;18.576;2023-04-06T00:56:32;19.70;;;7.00;;
71320;SDS011;59118;54.322;18.576;2023-04-06T00:58:59;21.00;;;6.97;;
71320;SDS011;59118;54.322;18.576;2023-04-06T01:01:25;17.45;;;5.82;;
71320;SDS011;59118;54.322;18.576;2023-04-06T01:03:52;19.45;;;6.15;;
71320;SDS011;59118;54.322;18.576;2023-04-06T01:06:19;17.77;;;6.32;;
71320;SDS011;59118;54.322;18.576;2023-04-06T01:08:46;17.53;;;6.03;;
71320;SDS011;59118;54.322;18.576;2023-04-06T01:11:12;16.95;;;5.72;;
71320;SDS011;59118;54.322;18.576;2023-04-06T01:13:39;16.83;;;5.97;;
71320;SDS011;59118;54.322;18.576;2023-04-06T01:16:06;17.88;;;6.10;;
71320;SDS011;59118;54.322;18.576;2023-04-06T01:18:33;21.08;;;5.82;;
71320;SDS011;59118;54.322;18.576;2023-04-06T01:20:59;19.63;;;6.17;;
71320;SDS011;59118;54.322;18.576;2023-04-06T01:23:26;20.25;;;6.40;;
71320;SDS011;59118;54.322;18.576;2023-04-06T01:25:52;18.17;;;5.82;;
71320;SDS011;59118;54.322;18.576;2023-04-06T01:28:19;16.05;;;5.43;;
71320;SDS011;59118;54.322;18.576;2023-04-06T01:30:45;14.60;;;4.82;;
71320;SDS011;59118;54.322;18.576;2023-04-06T01:33:12;16.10;;;5.33;;
71320;SDS011;59118;54.322;18.576;2023-04-06T01:35:39;17.95;;;5.35;;
71320;SDS011;59118;54.322;18.576;2023-04-06T01:38:05;14.43;;;5.20;;
71320;SDS011;59118;54.322;18.576;2023-04-06T01:40:32;18.08;;;5.30;;
71320;SDS011;59118;54.322;18.576;2023-04-06T01:42:58;15.05;;;5.10;;
71320;SDS011;59118;54.322;18.576;2023-04-06T01:45:25;15.80;;;5.33;;
71320;SDS011;59118;54.322;18.576;2023-04-06T01:47:52;13.90;;;4.80;;
71320;SDS011;59118;54.322;18.576;2023-04-06T01:50:18;14.68;;;5.78;;
71320;SDS011;59118;54.322;18.576;2023-04-06T01:52:45;15.10;;;5.22;;
71320;SDS011;59118;54.322;18.576;2023-04-06T01:55:12;15.48;;;5.22;;
71320;SDS011;59118;54.322;18.576;2023-04-06T01:57:39;18.00;;;5.40;;
71320;SDS011;59118;54.322;18.576;2023-04-06T02:00:05;13.90;;;4.80;;
71320;SDS011;59118;54.322;18.576;2023-04-06T02:02:32;13.35;;;4.53;;
71320;SDS011;59118;54.322;18.576;2023-04-06T02:04:59;17.00;;;4.97;;
71320;SDS011;59118;54.322;18.576;2023-04-06T02:07:26;14.15;;;5.15;;
71320;SDS011;59118;54.322;18.576;2023-04-06T02:09:55;15.03;;;4.90;;
71320;SDS011;59118;54.322;18.576;2023-04-06T02:12:22;14.20;;;4.80;;
71320;SDS011;59118;54.322;18.576;2023-04-06T02:14:50;12.98;;;5.25;;
71320;SDS011;59118;54.322;18.576;2023-04-06T02:17:16;15.07;;;4.72;;
71320;SDS011;59118;54.322;18.576;2023-04-06T02:19:43;14.82;;;5.13;;
71320;SDS011;59118;54.322;18.576;2023-04-06T02:22:09;16.43;;;4.73;;
71320;SDS011;59118;54.322;18.576;2023-04-06T02:24:36;11.55;;;4.22;;
71320;SDS011;59118;54.322;18.576;2023-04-06T02:27:03;13.68;;;4.65;;
71320;SDS011;59118;54.322;18.576;2023-04-06T02:29:29;13.50;;;4.80;;
71320;SDS011;59118;54.322;18.576;2023-04-06T02:31:56;12.38;;;4.85;;
71320;SDS011;59118;54.322;18.576;2023-04-06T02:34:22;13.97;;;5.37;;
71320;SDS011;59118;54.322;18.576;2023-04-06T02:36:49;13.05;;;5.05;;
71320;SDS011;59118;54.322;18.576;2023-04-06T02:39:15;13.18;;;5.10;;
71320;SDS011;59118;54.322;18.576;2023-04-06T02:41:42;16.83;;;5.13;;
71320;SDS011;59118;54.322;18.576;2023-04-06T02:44:08;16.85;;;5.50;;
71320;SDS011;59118;54.322;18.576;2023-04-06T02:46:35;15.83;;;5.30;;
71320;SDS011;59118;54.322;18.576;2023-04-06T02:49:02;19.30;;;6.45;;
71320;SDS011;59118;54.322;18.576;2023-04-06T02:51:30;16.77;;;6.07;;
71320;SDS011;59118;54.322;18.576;2023-04-06T02:53:57;13.90;;;5.50;;
71320;SDS011;59118;54.322;18.576;2023-04-06T02:56:23;14.15;;;5.60;;
71320;SDS011;59118;54.322;18.576;2023-04-06T02:58:50;19.70;;;6.93;;
71320;SDS011;59118;54.322;18.576;2023-04-06T03:01:16;16.33;;;5.97;;
71320;SDS011;59118;54.322;18.576;2023-04-06T03:03:43;17.65;;;6.45;;
71320;SDS011;59118;54.322;18.576;2023-04-06T03:06:12;20.52;;;6.65;;
71320;SDS011;59118;54.322;18.576;2023-04-06T03:08:39;16.02;;;5.55;;
71320;SDS011;59118;54.322;18.576;2023-04-06T03:11:06;18.23;;;5.27;;
71320;SDS011;59118;54.322;18.576;2023-04-06T03:13:32;15.63;;;5.40;;
71320;SDS011;59118;54.322;18.576;2023-04-06T03:15:59;11.73;;;4.85;;
71320;SDS011;59118;54.322;18.576;2023-04-06T03:18:26;18.15;;;5.15;;
71320;SDS011;59118;54.322;18.576;2023-04-06T03:20:52;12.68;;;4.97;;
71320;SDS011;59118;54.322;18.576;2023-04-06T03:23:20;15.13;;;4.83;;
71320;SDS011;59118;54.322;18.576;2023-04-06T03:25:47;14.73;;;4.72;;
71320;SDS011;59118;54.322;18.576;2023-04-06T03:28:13;13.43;;;4.85;;
71320;SDS011;59118;54.322;18.576;2023-04-06T03:30:41;12.60;;;4.57;;
71320;SDS011;59118;54.322;18.576;2023-04-06T03:33:07;13.20;;;4.68;;
71320;SDS011;59118;54.322;18.576;2023-04-06T03:35:34;14.10;;;4.80;;
71320;SDS011;59118;54.322;18.576;2023-04-06T03:38:01;10.73;;;4.45;;
71320;SDS011;59118;54.322;18.576;2023-04-06T03:40:27;14.60;;;4.82;;
71320;SDS011;59118;54.322;18.576;2023-04-06T03:42:54;11.13;;;4.22;;
71320;SDS011;59118;54.322;18.576;2023-04-06T03:45:20;14.02;;;4.60;;
71320;SDS011;59118;54.322;18.576;2023-04-06T03:47:47;15.83;;;4.50;;
71320;SDS011;59118;54.322;18.576;2023-04-06T03:50:13;15.88;;;4.78;;
71320;SDS011;59118;54.322;18.576;2023-04-06T03:52:40;10.40;;;4.38;;
71320;SDS011;59118;54.322;18.576;2023-04-06T03:55:07;11.02;;;4.55;;
71320;SDS011;59118;54.322;18.576;2023-04-06T03:57:34;12.05;;;4.70;;
71320;SDS011;59118;54.322;18.576;2023-04-06T04:00:00;14.17;;;4.57;;
71320;SDS011;59118;54.322;18.576;2023-04-06T04:02:27;18.20;;;4.70;;
71320;SDS011;59118;54.322;18.576;2023-04-06T04:04:53;17.00;;;5.05;;
71320;SDS011;59118;54.322;18.576;2023-04-06T04:07:20;12.90;;;5.07;;
71320;SDS011;59118;54.322;18.576;2023-04-06T04:09:47;21.05;;;6.57;;
71320;SDS011;59118;54.322;18.576;2023-04-06T04:12:13;18.67;;;6.43;;
71320;SDS011;59118;54.322;18.576;2023-04-06T04:14:41;29.48;;;6.53;;
71320;SDS011;59118;54.322;18.576;2023-04-06T04:17:08;16.30;;;4.97;;
71320;SDS011;59118;54.322;18.576;2023-04-06T04:19:34;12.77;;;5.28;;
71320;SDS011;59118;54.322;18.576;2023-04-06T04:22:01;16.50;;;5.45;;
71320;SDS011;59118;54.322;18.576;2023-04-06T04:24:30;20.93;;;6.00;;
71320;SDS011;59118;54.322;18.576;2023-04-06T04:27:11;19.17;;;6.15;;
71320;SDS011;59118;54.322;18.576;2023-04-06T04:30:00;15.32;;;5.43;;
71320;SDS011;59118;54.322;18.576;2023-04-06T04:32:27;14.15;;;5.93;;
71320;SDS011;59118;54.322;18.576;2023-04-06T04:34:54;18.08;;;5.78;;
71320;SDS011;59118;54.322;18.576;2023-04-06T04:37:20;16.70;;;6.47;;
71320;SDS011;59118;54.322;18.576;2023-04-06T04:39:47;21.20;;;7.20;;
71320;SDS011;59118;54.322;18.576;2023-04-06T04:42:13;18.17;;;6.20;;
71320;SDS011;59118;54.322;18.576;2023-04-06T04:44:40;20.35;;;7.32;;
71320;SDS011;59118;54.322;18.576;2023-04-06T04:47:07;21.67;;;6.95;;
71320;SDS011;59118;54.322;18.576;2023-04-06T04:49:33;27.47;;;9.93;;
71320;SDS011;59118;54.322;18.576;2023-04-06T04:52:00;36.25;;;12.52;;
71320;SDS011;59118;54.322;18.576;2023-04-06T04:54:26;37.13;;;13.27;;
71320;SDS011;59118;54.322;18.576;2023-04-06T04:56:54;42.35;;;14.10;;
71320;SDS011;59118;54.322;18.576;2023-04-06T04:59:23;34.35;;;13.52;;
71320;SDS011;59118;54.322;18.576;2023-04-06T05:01:50;30.40;;;12.10;;
71320;SDS011;59118;54.322;18.576;2023-04-06T05:04:21;31.40;;;11.75;;
71320;SDS011;59118;54.322;18.576;2023-04-06T05:06:48;27.50;;;11.65;;
71320;SDS011;59118;54.322;18.576;2023-04-06T05:09:14;27.42;;;10.27;;
71320;SDS011;59118;54.322;18.576;2023-04-06T05:11:41;25.83;;;9.52;;
71320;SDS011;59118;54.322;18.576;2023-04-06T05:14:08;24.03;;;9.27;;
71320;SDS011;59118;54.322;18.576;2023-04-06T05:16:34;23.25;;;9.10;;
71320;SDS011;59118;54.322;18.576;2023-04-06T05:19:01;20.42;;;7.93;;
71320;SDS011;59118;54.322;18.576;2023-04-06T05:21:28;25.52;;;8.52;;
71320;SDS011;59118;54.322;18.576;2023-04-06T05:23:54;20.20;;;8.80;;
71320;SDS011;59118;54.322;18.576;2023-04-06T05:26:21;21.37;;;9.10;;
71320;SDS011;59118;54.322;18.576;2023-04-06T05:28:50;23.33;;;8.75;;
71320;SDS011;59118;54.322;18.576;2023-04-06T05:31:17;23.75;;;9.73;;
71320;SDS011;59118;54.322;18.576;2023-04-06T05:33:43;23.27;;;8.60;;
71320;SDS011;59118;54.322;18.576;2023-04-06T05:36:10;20.60;;;9.02;;
71320;SDS011;59118;54.322;18.576;2023-04-06T05:38:40;22.20;;;8.67;;
71320;SDS011;59118;54.322;18.576;2023-04-06T05:41:06;16.15;;;6.65;;
71320;SDS011;59118;54.322;18.576;2023-04-06T05:43:33;20.20;;;6.82;;
71320;SDS011;59118;54.322;18.576;2023-04-06T05:45:59;18.00;;;6.95;;
71320;SDS011;59118;54.322;18.576;2023-04-06T05:48:26;18.75;;;7.10;;
71320;SDS011;59118;54.322;18.576;2023-04-06T05:50:53;18.10;;;6.43;;
71320;SDS011;59118;54.322;18.576;2023-04-06T05:53:19;19.27;;;7.95;;
71320;SDS011;59118;54.322;18.576;2023-04-06T05:55:47;19.73;;;7.75;;
71320;SDS011;59118;54.322;18.576;2023-04-06T05:58:13;18.67;;;7.05;;
71320;SDS011;59118;54.322;18.576;2023-04-06T06:00:40;17.25;;;6.85;;
71320;SDS011;59118;54.322;18.576;2023-04-06T06:03:09;15.97;;;6.50;;
71320;SDS011;59118;54.322;18.576;2023-04-06T06:05:36;17.45;;;6.50;;
71320;SDS011;59118;54.322;18.576;2023-04-06T06:08:02;14.93;;;6.05;;
71320;SDS011;59118;54.322;18.576;2023-04-06T06:10:29;10.68;;;4.75;;
71320;SDS011;59118;54.322;18.576;2023-04-06T06:12:56;12.13;;;4.60;;
71320;SDS011;59118;54.322;18.576;2023-04-06T06:15:22;10.83;;;4.40;;
71320;SDS011;59118;54.322;18.576;2023-04-06T06:17:49;15.85;;;4.07;;
71320;SDS011;59118;54.322;18.576;2023-04-06T06:20:15;10.95;;;3.03;;
71320;SDS011;59118;54.322;18.576;2023-04-06T06:22:42;8.57;;;2.45;;
71320;SDS011;59118;54.322;18.576;2023-04-06T06:25:09;8.00;;;2.00;;
71320;SDS011;59118;54.322;18.576;2023-04-06T06:27:36;9.93;;;2.60;;
71320;SDS011;59118;54.322;18.576;2023-04-06T06:30:02;9.35;;;2.67;;
71320;SDS011;59118;54.322;18.576;2023-04-06T06:32:30;11.43;;;2.70;;
71320;SDS011;59118;54.322;18.576;2023-04-06T06:34:56;11.70;;;3.00;;
71320;SDS011;59118;54.322;18.576;2023-04-06T06:37:23;6.68;;;2.47;;
71320;SDS011;59118;54.322;18.576;2023-04-06T06:39:50;9.37;;;3.03;;
71320;SDS011;59118;54.322;18.576;2023-04-06T06:42:16;12.88;;;2.92;;
71320;SDS011;59118;54.322;18.576;2023-04-06T06:44:43;9.88;;;3.38;;
71320;SDS011;59118;54.322;18.576;2023-04-06T06:47:09;9.05;;;3.00;;
71320;SDS011;59118;54.322;18.576;2023-04-06T06:49:36;12.02;;;3.08;;
71320;SDS011;59118;54.322;18.576;2023-04-06T06:52:03;14.30;;;3.17;;
71320;SDS011;59118;54.322;18.576;2023-04-06T06:54:29;9.88;;;2.80;;
71320;SDS011;59118;54.322;18.576;2023-04-06T06:56:56;11.63;;;3.83;;
71320;SDS011;59118;54.322;18.576;2023-04-06T06:59:22;8.40;;;3.00;;
71320;SDS011;59118;54.322;18.576;2023-04-06T07:01:49;9.27;;;2.80;;
71320;SDS011;59118;54.322;18.576;2023-04-06T07:04:16;12.40;;;3.53;;
71320;SDS011;59118;54.322;18.576;2023-04-06T07:06:43;9.98;;;4.20;;
71320;SDS011;59118;54.322;18.576;2023-04-06T07:09:09;12.13;;;3.70;;
71320;SDS011;59118;54.322;18.576;2023-04-06T07:11:36;8.40;;;3.40;;
71320;SDS011;59118;54.322;18.576;2023-04-06T07:14:03;9.25;;;3.53;;
71320;SDS011;59118;54.322;18.576;2023-04-06T07:16:29;11.23;;;3.70;;
71320;SDS011;59118;54.322;18.576;2023-04-06T07:18:56;11.27;;;4.80;;
71320;SDS011;59118;54.322;18.576;2023-04-06T07:21:23;12.93;;;4.10;;
71320;SDS011;59118;54.322;18.576;2023-04-06T07:23:49;13.85;;;4.60;;
71320;SDS011;59118;54.322;18.576;2023-04-06T07:26:17;12.77;;;5.20;;
71320;SDS011;59118;54.322;18.576;2023-04-06T07:28:43;13.23;;;5.50;;
71320;SDS011;59118;54.322;18.576;2023-04-06T07:31:10;14.52;;;5.10;;
71320;SDS011;59118;54.322;18.576;2023-04-06T07:33:36;18.23;;;5.85;;
71320;SDS011;59118;54.322;18.576;2023-04-06T07:36:03;14.00;;;5.90;;
71320;SDS011;59118;54.322;18.576;2023-04-06T07:38:30;14.85;;;6.47;;
71320;SDS011;59118;54.322;18.576;2023-04-06T07:40:56;17.93;;;7.73;;
71320;SDS011;59118;54.322;18.576;2023-04-06T07:43:24;18.08;;;6.50;;
71320;SDS011;59118;54.322;18.576;2023-04-06T07:45:51;14.52;;;6.03;;
71320;SDS011;59118;54.322;18.576;2023-04-06T07:48:18;14.93;;;6.63;;
71320;SDS011;59118;54.322;18.576;2023-04-06T07:50:44;16.23;;;6.20;;
71320;SDS011;59118;54.322;18.576;2023-04-06T07:53:11;20.90;;;6.53;;
71320;SDS011;59118;54.322;18.576;2023-04-06T07:55:38;17.33;;;5.45;;
71320;SDS011;59118;54.322;18.576;2023-04-06T07:58:05;16.35;;;5.65;;
71320;SDS011;59118;54.322;18.576;2023-04-06T08:00:31;17.50;;;5.88;;
71320;SDS011;59118;54.322;18.576;2023-04-06T08:02:59;18.73;;;6.25;;
71320;SDS011;59118;54.322;18.576;2023-04-06T08:05:26;14.50;;;6.00;;
71320;SDS011;59118;54.322;18.576;2023-04-06T08:07:52;15.43;;;5.18;;
71320;SDS011;59118;54.322;18.576;2023-04-06T08:10:19;14.40;;;4.97;;
71320;SDS011;59118;54.322;18.576;2023-04-06T08:12:46;12.27;;;4.30;;
71320;SDS011;59118;54.322;18.576;2023-04-06T08:15:12;9.18;;;4.03;;
71320;SDS011;59118;54.322;18.576;2023-04-06T08:17:39;12.17;;;4.63;;
71320;SDS011;59118;54.322;18.576;2023-04-06T08:20:06;18.67;;;6.70;;
71320;SDS011;59118;54.322;18.576;2023-04-06T08:22:32;11.60;;;4.15;;
71320;SDS011;59118;54.322;18.576;2023-04-06T08:24:59;9.60;;;3.90;;
71320;SDS011;59118;54.322;18.576;2023-04-06T08:27:26;13.43;;;4.43;;
71320;SDS011;59118;54.322;18.576;2023-04-06T08:29:52;13.97;;;4.40;;
71320;SDS011;59118;54.322;18.576;2023-04-06T08:32:19;10.45;;;3.50;;
71320;SDS011;59118;54.322;18.576;2023-04-06T08:34:46;11.02;;;3.80;;
71320;SDS011;59118;54.322;18.576;2023-04-06T08:37:13;8.68;;;3.70;;
71320;SDS011;59118;54.322;18.576;2023-04-06T08:39:39;9.88;;;3.95;;
71320;SDS011;59118;54.322;18.576;2023-04-06T08:42:10;8.10;;;3.33;;
71320;SDS011;59118;54.322;18.576;2023-04-06T08:44:39;9.10;;;3.60;;
71320;SDS011;59118;54.322;18.576;2023-04-06T08:47:07;10.90;;;4.00;;
71320;SDS011;59118;54.322;18.576;2023-04-06T08:49:34;11.23;;;3.63;;
71320;SDS011;59118;54.322;18.576;2023-04-06T08:52:04;9.52;;;3.10;;
71320;SDS011;59118;54.322;18.576;2023-04-06T08:54:33;13.80;;;3.80;;
71320;SDS011;59118;54.322;18.576;2023-04-06T08:57:00;7.60;;;2.83;;
71320;SDS011;59118;54.322;18.576;2023-04-06T08:59:28;8.20;;;2.63;;
71320;SDS011;59118;54.322;18.576;2023-04-06T09:01:55;7.25;;;2.53;;
71320;SDS011;59118;54.322;18.576;2023-04-06T09:04:22;9.77;;;3.42;;
71320;SDS011;59118;54.322;18.576;2023-04-06T09:06:49;8.57;;;3.17;;
71320;SDS011;59118;54.322;18.576;2023-04-06T09:09:16;7.15;;;2.42;;
71320;SDS011;59118;54.322;18.576;2023-04-06T09:11:46;6.75;;;2.45;;
71320;SDS011;59118;54.322;18.576;2023-04-06T09:14:16;6.40;;;2.53;;
71320;SDS011;59118;54.322;18.576;2023-04-06T09:16:44;5.43;;;2.22;;
71320;SDS011;59118;54.322;18.576;2023-04-06T09:19:12;11.27;;;2.57;;
71320;SDS011;59118;54.322;18.576;2023-04-06T09:21:39;6.72;;;2.30;;
71320;SDS011;59118;54.322;18.576;2023-04-06T09:24:08;7.05;;;2.22;;
71320;SDS011;59118;54.322;18.576;2023-04-06T09:26:48;6.15;;;2.05;;
71320;SDS011;59118;54.322;18.576;2023-04-06T09:29:24;5.35;;;2.50;;
71320;SDS011;59118;54.322;18.576;2023-04-06T09:32:01;6.70;;;2.40;;
71320;SDS011;59118;54.322;18.576;2023-04-06T09:34:28;9.63;;;2.78;;
71320;SDS011;59118;54.322;18.576;2023-04-06T09:36:55;8.75;;;2.75;;
71320;SDS011;59118;54.322;18.576;2023-04-06T09:39:22;8.00;;;2.40;;
71320;SDS011;59118;54.322;18.576;2023-04-06T09:41:52;7.47;;;2.80;;
71320;SDS011;59118;54.322;18.576;2023-04-06T09:44:20;6.93;;;2.27;;
71320;SDS011;59118;54.322;18.576;2023-04-06T09:46:47;8.02;;;2.67;;
71320;SDS011;59118;54.322;18.576;2023-04-06T09:49:33;7.78;;;2.38;;
71320;SDS011;59118;54.322;18.576;2023-04-06T09:52:02;6.35;;;2.10;;
71320;SDS011;59118;54.322;18.576;2023-04-06T09:54:30;6.13;;;2.30;;
71320;SDS011;59118;54.322;18.576;2023-04-06T10:03:19;10.30;;;2.25;;
71320;SDS011;59118;54.322;18.576;2023-04-06T10:05:37;7.22;;;2.30;;
71320;SDS011;59118;54.322;18.576;2023-04-06T10:08:11;6.57;;;2.40;;
71320;SDS011;59118;54.322;18.576;2023-04-06T10:10:38;7.33;;;2.20;;
71320;SDS011;59118;54.322;18.576;2023-04-06T10:13:05;7.93;;;2.13;;
71320;SDS011;59118;54.322;18.576;2023-04-06T10:15:32;7.32;;;2.20;;
71320;SDS011;59118;54.322;18.576;2023-04-06T10:18:00;6.40;;;1.80;;
71320;SDS011;59118;54.322;18.576;2023-04-06T10:25:57;6.20;;;1.95;;
71320;SDS011;59118;54.322;18.576;2023-04-06T10:28:24;5.50;;;1.85;;
71320;SDS011;59118;54.322;18.576;2023-04-06T10:30:58;6.78;;;1.65;;
71320;SDS011;59118;54.322;18.576;2023-04-06T10:33:25;4.78;;;2.00;;
71320;SDS011;59118;54.322;18.576;2023-04-06T10:35:52;6.27;;;1.60;;
71320;SDS011;59118;54.322;18.576;2023-04-06T10:38:20;7.10;;;1.83;;
71320;SDS011;59118;54.322;18.576;2023-04-06T10:40:48;5.47;;;1.73;;
71320;SDS011;59118;54.322;18.576;2023-04-06T10:43:19;6.38;;;1.80;;
71320;SDS011;59118;54.322;18.576;2023-04-06T10:45:56;6.88;;;1.90;;
71320;SDS011;59118;54.322;18.576;2023-04-06T10:48:24;6.03;;;2.03;;
71320;SDS011;59118;54.322;18.576;2023-04-06T10:50:51;8.02;;;2.05;;
71320;SDS011;59118;54.322;18.576;2023-04-06T10:53:22;5.90;;;1.92;;
71320;SDS011;59118;54.322;18.576;2023-04-06T10:55:50;6.15;;;2.30;;
71320;SDS011;59118;54.322;18.576;2023-04-06T10:58:17;5.10;;;1.85;;
71320;SDS011;59118;54.322;18.576;2023-04-06T11:00:45;5.80;;;1.80;;
71320;SDS011;59118;54.322;18.576;2023-04-06T11:03:16;6.40;;;2.10;;
71320;SDS011;59118;54.322;18.576;2023-04-06T11:05:46;7.30;;;2.00;;
71320;SDS011;59118;54.322;18.576;2023-04-06T11:08:24;7.40;;;2.00;;
71320;SDS011;59118;54.322;18.576;2023-04-06T11:11:31;4.57;;;1.80;;
71320;SDS011;59118;54.322;18.576;2023-04-06T11:13:54;4.80;;;1.50;;
71320;SDS011;59118;54.322;18.576;2023-04-06T11:16:24;7.15;;;1.88;;
71320;SDS011;59118;54.322;18.576;2023-04-06T11:18:53;6.07;;;1.50;;
71320;SDS011;59118;54.322;18.576;2023-04-06T11:21:43;6.10;;;1.50;;
71320;SDS011;59118;54.322;18.576;2023-04-06T11:24:18;4.05;;;1.70;;
71320;SDS011;59118;54.322;18.576;2023-04-06T11:26:58;6.03;;;1.60;;
71320;SDS011;59118;54.322;18.576;2023-04-06T11:29:27;6.25;;;1.70;;
71320;SDS011;59118;54.322;18.576;2023-04-06T11:31:59;5.00;;;2.05;;
71320;SDS011;59118;54.322;18.576;2023-04-06T11:34:28;3.75;;;1.50;;
71320;SDS011;59118;54.322;18.576;2023-04-06T11:36:59;4.68;;;1.75;;
71320;SDS011;59118;54.322;18.576;2023-04-06T11:39:28;5.37;;;1.37;;
71320;SDS011;59118;54.322;18.576;2023-04-06T11:42:00;7.28;;;1.70;;
71320;SDS011;59118;54.322;18.576;2023-04-06T11:47:01;6.20;;;2.08;;
71320;SDS011;59118;54.322;18.576;2023-04-06T11:49:29;6.03;;;2.40;;
71320;SDS011;59118;54.322;18.576;2023-04-06T11:51:57;8.33;;;2.20;;
71320;SDS011;59118;54.322;18.576;2023-04-06T11:54:36;6.20;;;1.95;;
71320;SDS011;59118;54.322;18.576;2023-04-06T11:57:05;6.10;;;1.85;;
71320;SDS011;59118;54.322;18.576;2023-04-06T11:59:34;6.65;;;1.88;;
71320;SDS011;59118;54.322;18.576;2023-04-06T12:02:01;5.32;;;1.58;;
71320;SDS011;59118;54.322;18.576;2023-04-06T12:04:29;5.53;;;1.57;;
71320;SDS011;59118;54.322;18.576;2023-04-06T12:13:18;5.13;;;1.48;;
71320;SDS011;59118;54.322;18.576;2023-04-06T12:15:46;4.38;;;1.48;;
71320;SDS011;59118;54.322;18.576;2023-04-06T12:18:13;3.20;;;1.30;;
71320;SDS011;59118;54.322;18.576;2023-04-06T12:20:39;2.58;;;1.20;;
71320;SDS011;59118;54.322;18.576;2023-04-06T12:23:06;2.63;;;1.27;;
71320;SDS011;59118;54.322;18.576;2023-04-06T12:25:33;4.88;;;1.50;;
71320;SDS011;59118;54.322;18.576;2023-04-06T12:27:59;4.68;;;1.40;;
71320;SDS011;59118;54.322;18.576;2023-04-06T12:30:26;3.80;;;1.40;;
71320;SDS011;59118;54.322;18.576;2023-04-06T12:32:53;4.85;;;1.40;;
71320;SDS011;59118;54.322;18.576;2023-04-06T12:35:19;4.17;;;1.50;;
71320;SDS011;59118;54.322;18.576;2023-04-06T12:37:47;4.65;;;1.60;;
71320;SDS011;59118;54.322;18.576;2023-04-06T12:40:13;3.67;;;1.40;;
71320;SDS011;59118;54.322;18.576;2023-04-06T12:42:41;2.17;;;1.30;;
71320;SDS011;59118;54.322;18.576;2023-04-06T12:45:08;4.57;;;1.40;;
71320;SDS011;59118;54.322;18.576;2023-04-06T12:49:51;3.35;;;1.40;;
71320;SDS011;59118;54.322;18.576;2023-04-06T12:52:17;3.70;;;1.63;;
71320;SDS011;59118;54.322;18.576;2023-04-06T12:57:56;3.25;;;1.70;;
71320;SDS011;59118;54.322;18.576;2023-04-06T13:10:12;4.30;;;1.50;;
71320;SDS011;59118;54.322;18.576;2023-04-06T13:15:26;3.78;;;1.33;;
71320;SDS011;59118;54.322;18.576;2023-04-06T13:17:53;5.77;;;1.23;;
71320;SDS011;59118;54.322;18.576;2023-04-06T13:20:21;2.25;;;1.15;;
71320;SDS011;59118;54.322;18.576;2023-04-06T13:22:48;2.55;;;1.27;;
71320;SDS011;59118;54.322;18.576;2023-04-06T13:25:14;3.70;;;1.27;;
71320;SDS011;59118;54.322;18.576;2023-04-06T13:27:41;2.83;;;1.30;;
71320;SDS011;59118;54.322;18.576;2023-04-06T13:30:12;4.90;;;1.20;;
71320;SDS011;59118;54.322;18.576;2023-04-06T13:32:41;3.63;;;1.30;;
71320;SDS011;59118;54.322;18.576;2023-04-06T13:35:08;3.22;;;1.25;;
71320;SDS011;59118;54.322;18.576;2023-04-06T13:37:35;2.75;;;1.15;;
71320;SDS011;59118;54.322;18.576;2023-04-06T13:43:36;5.18;;;1.55;;
